sensor_id;sensor_type;location;lat;lon;timestamp;P1;durP1;ratioP1;P2;durP2;ratioP2
70467;SDS011;57934;51.532;7.684;2022-10-18T00:01:38;9.10;;;5.82;;
70467;SDS011;57934;51.532;7.684;2022-10-18T00:04:04;6.22;;;5.32;;
70467;SDS011;57934;51.532;7.684;2022-10-18T00:06:30;7.30;;;5.55;;
70467;SDS011;57934;51.532;7.684;2022-10-18T00:08:56;8.40;;;6.30;;
70467;SDS011;57934;51.532;7.684;2022-10-18T00:11:22;7.40;;;5.68;;
70467;SDS011;57934;51.532;7.684;2022-10-18T00:13:49;12.23;;;5.18;;
70467;SDS011;57934;51.532;7.684;2022-10-18T00:16:15;8.90;;;5.53;;
70467;SDS011;57934;51.532;7.684;2022-10-18T00:18:43;7.57;;;6.10;;
70467;SDS011;57934;51.532;7.684;2022-10-18T00:21:17;8.25;;;5.97;;
70467;SDS011;57934;51.532;7.684;2022-10-18T00:23:44;7.78;;;5.93;;
70467;SDS011;57934;51.532;7.684;2022-10-18T00:28:39;9.75;;;6.30;;
70467;SDS011;57934;51.532;7.684;2022-10-18T00:31:19;10.18;;;6.72;;
70467;SDS011;57934;51.532;7.684;2022-10-18T00:33:49;9.38;;;6.60;;
70467;SDS011;57934;51.532;7.684;2022-10-18T00:36:17;10.02;;;7.10;;
70467;SDS011;57934;51.532;7.684;2022-10-18T00:38:44;9.18;;;6.97;;
70467;SDS011;57934;51.532;7.684;2022-10-18T00:41:12;7.95;;;6.15;;
70467;SDS011;57934;51.532;7.684;2022-10-18T00:46:20;8.95;;;6.30;;
70467;SDS011;57934;51.532;7.684;2022-10-18T00:48:47;8.18;;;7.10;;
70467;SDS011;57934;51.532;7.684;2022-10-18T00:51:14;9.85;;;6.80;;
70467;SDS011;57934;51.532;7.684;2022-10-18T00:53:43;9.43;;;6.40;;
70467;SDS011;57934;51.532;7.684;2022-10-18T00:56:09;10.30;;;7.00;;
70467;SDS011;57934;51.532;7.684;2022-10-18T00:58:35;8.52;;;6.85;;
70467;SDS011;57934;51.532;7.684;2022-10-18T01:01:01;8.25;;;7.40;;
70467;SDS011;57934;51.532;7.684;2022-10-18T01:03:28;12.60;;;7.80;;
70467;SDS011;57934;51.532;7.684;2022-10-18T01:05:55;9.50;;;7.38;;
70467;SDS011;57934;51.532;7.684;2022-10-18T01:32:06;15.57;;;7.90;;
70467;SDS011;57934;51.532;7.684;2022-10-18T01:34:37;13.40;;;8.27;;
70467;SDS011;57934;51.532;7.684;2022-10-18T01:37:08;11.43;;;7.53;;
70467;SDS011;57934;51.532;7.684;2022-10-18T01:39:39;13.38;;;7.75;;
70467;SDS011;57934;51.532;7.684;2022-10-18T01:42:09;11.95;;;7.57;;
70467;SDS011;57934;51.532;7.684;2022-10-18T01:44:38;9.38;;;7.40;;
70467;SDS011;57934;51.532;7.684;2022-10-18T01:47:06;10.07;;;7.57;;
70467;SDS011;57934;51.532;7.684;2022-10-18T01:49:35;10.57;;;8.00;;
70467;SDS011;57934;51.532;7.684;2022-10-18T01:52:01;14.02;;;8.07;;
70467;SDS011;57934;51.532;7.684;2022-10-18T01:54:29;13.45;;;8.18;;
70467;SDS011;57934;51.532;7.684;2022-10-18T01:57:04;14.48;;;8.10;;
70467;SDS011;57934;51.532;7.684;2022-10-18T02:08:10;11.77;;;7.10;;
70467;SDS011;57934;51.532;7.684;2022-10-18T02:10:47;11.85;;;7.60;;
70467;SDS011;57934;51.532;7.684;2022-10-18T02:13:17;12.82;;;7.75;;
70467;SDS011;57934;51.532;7.684;2022-10-18T02:15:46;11.00;;;7.22;;
70467;SDS011;57934;51.532;7.684;2022-10-18T02:18:17;12.02;;;7.50;;
70467;SDS011;57934;51.532;7.684;2022-10-18T02:20:49;10.70;;;7.47;;
70467;SDS011;57934;51.532;7.684;2022-10-18T02:23:16;11.35;;;7.88;;
70467;SDS011;57934;51.532;7.684;2022-10-18T02:25:46;11.48;;;8.02;;
70467;SDS011;57934;51.532;7.684;2022-10-18T02:28:12;10.43;;;6.57;;
70467;SDS011;57934;51.532;7.684;2022-10-18T02:30:42;12.20;;;7.47;;
70467;SDS011;57934;51.532;7.684;2022-10-18T02:33:16;13.80;;;7.53;;
70467;SDS011;57934;51.532;7.684;2022-10-18T02:35:55;11.52;;;7.43;;
70467;SDS011;57934;51.532;7.684;2022-10-18T02:38:24;15.15;;;7.10;;
70467;SDS011;57934;51.532;7.684;2022-10-18T02:40:53;9.07;;;6.85;;
70467;SDS011;57934;51.532;7.684;2022-10-18T02:43:21;11.35;;;7.40;;
70467;SDS011;57934;51.532;7.684;2022-10-18T02:45:49;11.75;;;7.55;;
70467;SDS011;57934;51.532;7.684;2022-10-18T02:48:15;13.00;;;7.57;;
70467;SDS011;57934;51.532;7.684;2022-10-18T02:50:41;12.80;;;6.97;;
70467;SDS011;57934;51.532;7.684;2022-10-18T02:53:07;10.98;;;7.47;;
70467;SDS011;57934;51.532;7.684;2022-10-18T02:55:33;14.52;;;8.20;;
70467;SDS011;57934;51.532;7.684;2022-10-18T02:57:59;9.90;;;7.72;;
70467;SDS011;57934;51.532;7.684;2022-10-18T03:00:25;12.88;;;7.85;;
70467;SDS011;57934;51.532;7.684;2022-10-18T03:02:51;11.07;;;7.05;;
70467;SDS011;57934;51.532;7.684;2022-10-18T03:05:18;10.93;;;7.57;;
70467;SDS011;57934;51.532;7.684;2022-10-18T03:07:44;12.70;;;7.18;;
70467;SDS011;57934;51.532;7.684;2022-10-18T03:10:10;12.98;;;7.30;;
70467;SDS011;57934;51.532;7.684;2022-10-18T03:12:36;15.35;;;7.47;;
70467;SDS011;57934;51.532;7.684;2022-10-18T03:15:02;11.38;;;7.30;;
70467;SDS011;57934;51.532;7.684;2022-10-18T03:17:28;11.27;;;7.93;;
70467;SDS011;57934;51.532;7.684;2022-10-18T03:19:55;13.82;;;7.88;;
70467;SDS011;57934;51.532;7.684;2022-10-18T03:22:21;9.35;;;6.90;;
70467;SDS011;57934;51.532;7.684;2022-10-18T03:24:47;12.05;;;7.50;;
70467;SDS011;57934;51.532;7.684;2022-10-18T03:27:13;10.38;;;7.60;;
70467;SDS011;57934;51.532;7.684;2022-10-18T03:29:39;14.95;;;7.72;;
70467;SDS011;57934;51.532;7.684;2022-10-18T03:32:05;12.60;;;7.78;;
70467;SDS011;57934;51.532;7.684;2022-10-18T03:34:31;12.15;;;7.55;;
70467;SDS011;57934;51.532;7.684;2022-10-18T03:36:57;15.40;;;8.45;;
70467;SDS011;57934;51.532;7.684;2022-10-18T03:39:23;16.90;;;8.65;;
70467;SDS011;57934;51.532;7.684;2022-10-18T03:41:49;12.35;;;8.13;;
70467;SDS011;57934;51.532;7.684;2022-10-18T03:44:15;19.25;;;9.70;;
70467;SDS011;57934;51.532;7.684;2022-10-18T03:46:41;16.95;;;8.88;;
70467;SDS011;57934;51.532;7.684;2022-10-18T03:49:07;13.93;;;8.82;;
70467;SDS011;57934;51.532;7.684;2022-10-18T03:51:33;18.95;;;8.60;;
70467;SDS011;57934;51.532;7.684;2022-10-18T03:53:59;15.18;;;8.93;;
70467;SDS011;57934;51.532;7.684;2022-10-18T03:56:25;16.40;;;9.45;;
70467;SDS011;57934;51.532;7.684;2022-10-18T03:58:51;13.65;;;8.60;;
70467;SDS011;57934;51.532;7.684;2022-10-18T04:01:17;14.65;;;9.13;;
70467;SDS011;57934;51.532;7.684;2022-10-18T04:03:43;15.68;;;9.07;;
70467;SDS011;57934;51.532;7.684;2022-10-18T04:06:09;15.77;;;8.88;;
70467;SDS011;57934;51.532;7.684;2022-10-18T04:08:36;18.80;;;8.98;;
70467;SDS011;57934;51.532;7.684;2022-10-18T04:11:05;18.15;;;9.50;;
70467;SDS011;57934;51.532;7.684;2022-10-18T04:13:35;14.63;;;9.73;;
70467;SDS011;57934;51.532;7.684;2022-10-18T04:16:01;14.75;;;8.85;;
70467;SDS011;57934;51.532;7.684;2022-10-18T04:18:27;15.77;;;9.82;;
70467;SDS011;57934;51.532;7.684;2022-10-18T04:20:53;19.40;;;10.60;;
70467;SDS011;57934;51.532;7.684;2022-10-18T04:23:19;14.70;;;9.82;;
70467;SDS011;57934;51.532;7.684;2022-10-18T04:25:46;16.50;;;10.63;;
70467;SDS011;57934;51.532;7.684;2022-10-18T04:28:12;19.27;;;10.43;;
70467;SDS011;57934;51.532;7.684;2022-10-18T04:30:38;20.98;;;10.15;;
70467;SDS011;57934;51.532;7.684;2022-10-18T04:33:04;18.67;;;10.68;;
70467;SDS011;57934;51.532;7.684;2022-10-18T04:35:30;17.05;;;11.75;;
70467;SDS011;57934;51.532;7.684;2022-10-18T04:37:56;25.52;;;11.93;;
70467;SDS011;57934;51.532;7.684;2022-10-18T04:40:22;21.33;;;11.38;;
70467;SDS011;57934;51.532;7.684;2022-10-18T04:42:48;19.52;;;11.85;;
70467;SDS011;57934;51.532;7.684;2022-10-18T04:45:14;19.80;;;11.60;;
70467;SDS011;57934;51.532;7.684;2022-10-18T04:47:40;20.63;;;11.60;;
70467;SDS011;57934;51.532;7.684;2022-10-18T04:50:06;21.02;;;12.10;;
70467;SDS011;57934;51.532;7.684;2022-10-18T04:52:33;21.48;;;12.68;;
70467;SDS011;57934;51.532;7.684;2022-10-18T04:54:59;21.83;;;11.75;;
70467;SDS011;57934;51.532;7.684;2022-10-18T04:57:25;26.10;;;13.15;;
70467;SDS011;57934;51.532;7.684;2022-10-18T04:59:51;16.63;;;11.80;;
70467;SDS011;57934;51.532;7.684;2022-10-18T05:02:17;26.20;;;12.73;;
70467;SDS011;57934;51.532;7.684;2022-10-18T05:04:43;23.90;;;13.48;;
70467;SDS011;57934;51.532;7.684;2022-10-18T05:07:09;20.33;;;12.38;;
70467;SDS011;57934;51.532;7.684;2022-10-18T05:09:35;28.02;;;13.40;;
70467;SDS011;57934;51.532;7.684;2022-10-18T05:12:01;24.65;;;12.70;;
70467;SDS011;57934;51.532;7.684;2022-10-18T05:14:27;23.15;;;12.98;;
70467;SDS011;57934;51.532;7.684;2022-10-18T05:16:53;20.25;;;12.45;;
70467;SDS011;57934;51.532;7.684;2022-10-18T05:19:19;21.35;;;12.32;;
70467;SDS011;57934;51.532;7.684;2022-10-18T05:21:45;22.15;;;13.30;;
70467;SDS011;57934;51.532;7.684;2022-10-18T05:24:11;28.13;;;17.13;;
70467;SDS011;57934;51.532;7.684;2022-10-18T05:26:37;28.35;;;15.40;;
70467;SDS011;57934;51.532;7.684;2022-10-18T05:29:03;24.65;;;13.93;;
70467;SDS011;57934;51.532;7.684;2022-10-18T05:31:29;25.88;;;14.40;;
70467;SDS011;57934;51.532;7.684;2022-10-18T05:33:56;28.38;;;13.60;;
70467;SDS011;57934;51.532;7.684;2022-10-18T05:36:22;28.15;;;14.55;;
70467;SDS011;57934;51.532;7.684;2022-10-18T05:38:50;26.40;;;13.63;;
70467;SDS011;57934;51.532;7.684;2022-10-18T05:41:18;31.23;;;15.70;;
70467;SDS011;57934;51.532;7.684;2022-10-18T05:43:44;34.78;;;16.27;;
70467;SDS011;57934;51.532;7.684;2022-10-18T05:46:10;31.05;;;15.15;;
70467;SDS011;57934;51.532;7.684;2022-10-18T05:48:37;25.08;;;13.80;;
70467;SDS011;57934;51.532;7.684;2022-10-18T05:51:03;31.73;;;15.07;;
70467;SDS011;57934;51.532;7.684;2022-10-18T05:53:30;31.15;;;15.30;;
70467;SDS011;57934;51.532;7.684;2022-10-18T05:55:59;34.28;;;15.00;;
70467;SDS011;57934;51.532;7.684;2022-10-18T05:58:26;31.95;;;15.13;;
70467;SDS011;57934;51.532;7.684;2022-10-18T06:00:52;33.42;;;16.08;;
70467;SDS011;57934;51.532;7.684;2022-10-18T06:03:18;33.83;;;16.05;;
70467;SDS011;57934;51.532;7.684;2022-10-18T06:05:44;31.30;;;16.13;;
70467;SDS011;57934;51.532;7.684;2022-10-18T06:08:10;35.72;;;16.23;;
70467;SDS011;57934;51.532;7.684;2022-10-18T06:10:37;33.20;;;16.25;;
70467;SDS011;57934;51.532;7.684;2022-10-18T06:13:05;34.50;;;16.38;;
70467;SDS011;57934;51.532;7.684;2022-10-18T06:15:31;40.58;;;17.63;;
70467;SDS011;57934;51.532;7.684;2022-10-18T06:17:57;38.83;;;17.88;;
70467;SDS011;57934;51.532;7.684;2022-10-18T06:20:23;39.33;;;17.83;;
70467;SDS011;57934;51.532;7.684;2022-10-18T06:22:52;39.58;;;17.95;;
70467;SDS011;57934;51.532;7.684;2022-10-18T06:25:18;44.47;;;19.05;;
70467;SDS011;57934;51.532;7.684;2022-10-18T06:27:44;44.38;;;18.88;;
70467;SDS011;57934;51.532;7.684;2022-10-18T06:30:10;48.97;;;20.17;;
70467;SDS011;57934;51.532;7.684;2022-10-18T06:32:36;41.10;;;20.58;;
70467;SDS011;57934;51.532;7.684;2022-10-18T06:35:02;47.25;;;21.27;;
70467;SDS011;57934;51.532;7.684;2022-10-18T06:37:29;46.33;;;20.48;;
70467;SDS011;57934;51.532;7.684;2022-10-18T06:39:55;44.17;;;20.55;;
70467;SDS011;57934;51.532;7.684;2022-10-18T06:42:21;47.70;;;19.55;;
70467;SDS011;57934;51.532;7.684;2022-10-18T06:44:47;50.10;;;19.95;;
70467;SDS011;57934;51.532;7.684;2022-10-18T06:47:14;45.72;;;18.80;;
70467;SDS011;57934;51.532;7.684;2022-10-18T06:49:40;53.65;;;19.65;;
70467;SDS011;57934;51.532;7.684;2022-10-18T06:52:06;52.08;;;22.50;;
70467;SDS011;57934;51.532;7.684;2022-10-18T06:54:32;56.42;;;22.42;;
70467;SDS011;57934;51.532;7.684;2022-10-18T06:56:58;60.78;;;24.88;;
70467;SDS011;57934;51.532;7.684;2022-10-18T06:59:27;69.43;;;27.05;;
70467;SDS011;57934;51.532;7.684;2022-10-18T07:01:53;79.78;;;26.98;;
70467;SDS011;57934;51.532;7.684;2022-10-18T07:04:19;79.72;;;26.85;;
70467;SDS011;57934;51.532;7.684;2022-10-18T07:06:45;108.13;;;28.55;;
70467;SDS011;57934;51.532;7.684;2022-10-18T07:09:11;92.80;;;26.63;;
70467;SDS011;57934;51.532;7.684;2022-10-18T07:11:37;102.78;;;28.75;;
70467;SDS011;57934;51.532;7.684;2022-10-18T07:14:03;102.38;;;30.95;;
70467;SDS011;57934;51.532;7.684;2022-10-18T07:16:30;111.30;;;32.72;;
70467;SDS011;57934;51.532;7.684;2022-10-18T07:18:57;82.07;;;29.45;;
70467;SDS011;57934;51.532;7.684;2022-10-18T07:21:24;86.68;;;28.65;;
70467;SDS011;57934;51.532;7.684;2022-10-18T07:23:51;70.40;;;26.67;;
70467;SDS011;57934;51.532;7.684;2022-10-18T07:26:18;72.88;;;26.13;;
70467;SDS011;57934;51.532;7.684;2022-10-18T07:28:52;74.13;;;26.20;;
70467;SDS011;57934;51.532;7.684;2022-10-18T07:31:20;93.47;;;28.40;;
70467;SDS011;57934;51.532;7.684;2022-10-18T07:33:47;86.70;;;28.27;;
70467;SDS011;57934;51.532;7.684;2022-10-18T07:36:13;73.20;;;26.42;;
70467;SDS011;57934;51.532;7.684;2022-10-18T07:38:39;68.80;;;26.50;;
70467;SDS011;57934;51.532;7.684;2022-10-18T07:41:06;75.00;;;27.70;;
70467;SDS011;57934;51.532;7.684;2022-10-18T07:43:34;76.68;;;29.35;;
70467;SDS011;57934;51.532;7.684;2022-10-18T07:46:01;72.60;;;29.00;;
70467;SDS011;57934;51.532;7.684;2022-10-18T07:48:29;70.20;;;27.63;;
70467;SDS011;57934;51.532;7.684;2022-10-18T07:50:59;68.65;;;25.98;;
70467;SDS011;57934;51.532;7.684;2022-10-18T07:53:26;65.00;;;26.92;;
70467;SDS011;57934;51.532;7.684;2022-10-18T07:56:00;75.50;;;27.88;;
70467;SDS011;57934;51.532;7.684;2022-10-18T07:58:27;67.23;;;27.87;;
70467;SDS011;57934;51.532;7.684;2022-10-18T08:00:53;72.05;;;27.13;;
70467;SDS011;57934;51.532;7.684;2022-10-18T08:03:19;70.53;;;26.63;;
70467;SDS011;57934;51.532;7.684;2022-10-18T08:05:52;69.25;;;28.10;;
70467;SDS011;57934;51.532;7.684;2022-10-18T08:08:19;76.38;;;30.35;;
70467;SDS011;57934;51.532;7.684;2022-10-18T08:10:47;71.05;;;28.63;;
70467;SDS011;57934;51.532;7.684;2022-10-18T08:13:13;69.50;;;27.67;;
70467;SDS011;57934;51.532;7.684;2022-10-18T08:15:39;73.43;;;27.33;;
70467;SDS011;57934;51.532;7.684;2022-10-18T08:18:06;70.80;;;27.08;;
70467;SDS011;57934;51.532;7.684;2022-10-18T08:20:32;79.50;;;29.63;;
70467;SDS011;57934;51.532;7.684;2022-10-18T08:22:58;85.22;;;29.40;;
70467;SDS011;57934;51.532;7.684;2022-10-18T08:25:24;86.45;;;30.35;;
70467;SDS011;57934;51.532;7.684;2022-10-18T08:27:50;81.88;;;29.60;;
70467;SDS011;57934;51.532;7.684;2022-10-18T08:30:16;82.40;;;28.67;;
70467;SDS011;57934;51.532;7.684;2022-10-18T08:32:42;76.85;;;30.92;;
70467;SDS011;57934;51.532;7.684;2022-10-18T08:35:08;84.85;;;30.80;;
70467;SDS011;57934;51.532;7.684;2022-10-18T08:37:34;97.20;;;32.70;;
70467;SDS011;57934;51.532;7.684;2022-10-18T08:40:00;80.05;;;30.17;;
70467;SDS011;57934;51.532;7.684;2022-10-18T08:45:11;84.47;;;31.27;;
70467;SDS011;57934;51.532;7.684;2022-10-18T08:47:39;80.57;;;30.55;;
70467;SDS011;57934;51.532;7.684;2022-10-18T08:50:14;85.03;;;32.85;;
70467;SDS011;57934;51.532;7.684;2022-10-18T08:53:00;89.68;;;33.75;;
70467;SDS011;57934;51.532;7.684;2022-10-18T08:58:15;99.55;;;37.17;;
70467;SDS011;57934;51.532;7.684;2022-10-18T09:00:55;108.00;;;39.53;;
70467;SDS011;57934;51.532;7.684;2022-10-18T09:17:55;121.50;;;47.60;;
70467;SDS011;57934;51.532;7.684;2022-10-18T09:20:34;139.30;;;47.75;;
70467;SDS011;57934;51.532;7.684;2022-10-18T09:28:47;118.97;;;47.00;;
70467;SDS011;57934;51.532;7.684;2022-10-18T09:37:38;106.90;;;45.65;;
70467;SDS011;57934;51.532;7.684;2022-10-18T09:40:11;125.03;;;46.88;;
70467;SDS011;57934;51.532;7.684;2022-10-18T09:42:40;96.55;;;45.33;;
70467;SDS011;57934;51.532;7.684;2022-10-18T09:45:23;97.72;;;43.33;;
70467;SDS011;57934;51.532;7.684;2022-10-18T09:47:53;81.68;;;40.65;;
70467;SDS011;57934;51.532;7.684;2022-10-18T09:50:25;75.38;;;39.60;;
70467;SDS011;57934;51.532;7.684;2022-10-18T09:55:37;87.40;;;41.20;;
70467;SDS011;57934;51.532;7.684;2022-10-18T09:58:16;70.22;;;39.38;;
70467;SDS011;57934;51.532;7.684;2022-10-18T10:00:46;74.05;;;38.67;;
70467;SDS011;57934;51.532;7.684;2022-10-18T10:03:14;67.63;;;37.47;;
70467;SDS011;57934;51.532;7.684;2022-10-18T10:05:40;63.45;;;36.70;;
70467;SDS011;57934;51.532;7.684;2022-10-18T10:08:07;68.57;;;36.47;;
70467;SDS011;57934;51.532;7.684;2022-10-18T10:10:34;60.78;;;36.08;;
70467;SDS011;57934;51.532;7.684;2022-10-18T10:15:54;63.53;;;36.50;;
70467;SDS011;57934;51.532;7.684;2022-10-18T10:18:23;60.38;;;36.47;;
70467;SDS011;57934;51.532;7.684;2022-10-18T10:20:56;78.20;;;41.78;;
70467;SDS011;57934;51.532;7.684;2022-10-18T10:23:28;76.00;;;43.60;;
70467;SDS011;57934;51.532;7.684;2022-10-18T10:25:58;80.72;;;44.47;;
70467;SDS011;57934;51.532;7.684;2022-10-18T10:28:30;77.32;;;43.78;;
70467;SDS011;57934;51.532;7.684;2022-10-18T10:31:25;93.72;;;46.75;;
70467;SDS011;57934;51.532;7.684;2022-10-18T10:36:47;107.32;;;49.38;;
70467;SDS011;57934;51.532;7.684;2022-10-18T10:39:15;112.82;;;48.15;;
70467;SDS011;57934;51.532;7.684;2022-10-18T10:41:47;119.97;;;50.92;;
70467;SDS011;57934;51.532;7.684;2022-10-18T10:44:14;126.20;;;52.13;;
70467;SDS011;57934;51.532;7.684;2022-10-18T10:46:42;127.10;;;51.97;;
70467;SDS011;57934;51.532;7.684;2022-10-18T10:49:14;117.38;;;49.25;;
70467;SDS011;57934;51.532;7.684;2022-10-18T10:51:44;115.20;;;48.35;;
70467;SDS011;57934;51.532;7.684;2022-10-18T10:54:18;93.05;;;42.22;;
70467;SDS011;57934;51.532;7.684;2022-10-18T10:59:47;74.93;;;38.47;;
70467;SDS011;57934;51.532;7.684;2022-10-18T11:02:19;73.40;;;37.60;;
70467;SDS011;57934;51.532;7.684;2022-10-18T11:04:51;66.18;;;35.42;;
70467;SDS011;57934;51.532;7.684;2022-10-18T11:12:44;62.33;;;37.78;;
70467;SDS011;57934;51.532;7.684;2022-10-18T11:15:17;52.75;;;34.50;;
70467;SDS011;57934;51.532;7.684;2022-10-18T11:17:54;59.63;;;35.67;;
70467;SDS011;57934;51.532;7.684;2022-10-18T11:20:41;60.05;;;37.72;;
70467;SDS011;57934;51.532;7.684;2022-10-18T11:23:13;54.28;;;35.00;;
70467;SDS011;57934;51.532;7.684;2022-10-18T11:28:37;56.95;;;35.38;;
70467;SDS011;57934;51.532;7.684;2022-10-18T11:39:53;49.45;;;30.55;;
70467;SDS011;57934;51.532;7.684;2022-10-18T11:42:46;46.97;;;28.50;;
70467;SDS011;57934;51.532;7.684;2022-10-18T11:47:50;41.35;;;27.48;;
70467;SDS011;57934;51.532;7.684;2022-10-18T11:50:33;43.17;;;28.08;;
70467;SDS011;57934;51.532;7.684;2022-10-18T11:53:27;37.65;;;24.98;;
70467;SDS011;57934;51.532;7.684;2022-10-18T11:56:11;36.28;;;25.50;;
70467;SDS011;57934;51.532;7.684;2022-10-18T12:04:38;34.08;;;23.50;;
70467;SDS011;57934;51.532;7.684;2022-10-18T12:07:10;31.98;;;23.38;;
70467;SDS011;57934;51.532;7.684;2022-10-18T12:09:42;34.08;;;22.80;;
70467;SDS011;57934;51.532;7.684;2022-10-18T12:12:19;38.53;;;24.27;;
70467;SDS011;57934;51.532;7.684;2022-10-18T12:14:55;33.33;;;22.73;;
70467;SDS011;57934;51.532;7.684;2022-10-18T12:17:31;35.03;;;23.08;;
70467;SDS011;57934;51.532;7.684;2022-10-18T12:20:05;34.72;;;23.13;;
70467;SDS011;57934;51.532;7.684;2022-10-18T12:22:39;37.70;;;24.38;;
70467;SDS011;57934;51.532;7.684;2022-10-18T12:25:13;32.13;;;22.50;;
70467;SDS011;57934;51.532;7.684;2022-10-18T12:30:28;34.45;;;22.90;;
70467;SDS011;57934;51.532;7.684;2022-10-18T12:33:03;32.53;;;22.08;;
70467;SDS011;57934;51.532;7.684;2022-10-18T12:35:38;38.00;;;20.85;;
70467;SDS011;57934;51.532;7.684;2022-10-18T12:38:30;32.20;;;19.73;;
70467;SDS011;57934;51.532;7.684;2022-10-18T12:41:00;30.05;;;20.60;;
70467;SDS011;57934;51.532;7.684;2022-10-18T12:43:28;26.23;;;19.83;;
70467;SDS011;57934;51.532;7.684;2022-10-18T12:46:02;31.83;;;21.35;;
70467;SDS011;57934;51.532;7.684;2022-10-18T12:48:32;27.88;;;19.73;;
70467;SDS011;57934;51.532;7.684;2022-10-18T12:53:32;24.45;;;16.77;;
70467;SDS011;57934;51.532;7.684;2022-10-18T13:09:24;36.03;;;21.63;;
70467;SDS011;57934;51.532;7.684;2022-10-18T13:14:52;25.20;;;17.15;;
70467;SDS011;57934;51.532;7.684;2022-10-18T13:20:40;19.65;;;14.35;;
70467;SDS011;57934;51.532;7.684;2022-10-18T13:23:35;20.33;;;11.48;;
70467;SDS011;57934;51.532;7.684;2022-10-18T13:29:08;23.27;;;11.15;;
70467;SDS011;57934;51.532;7.684;2022-10-18T13:32:01;14.45;;;9.57;;
70467;SDS011;57934;51.532;7.684;2022-10-18T13:34:42;17.58;;;10.65;;
70467;SDS011;57934;51.532;7.684;2022-10-18T13:39:34;15.45;;;10.63;;
70467;SDS011;57934;51.532;7.684;2022-10-18T13:57:55;15.63;;;8.85;;
70467;SDS011;57934;51.532;7.684;2022-10-18T14:00:50;11.30;;;8.15;;
70467;SDS011;57934;51.532;7.684;2022-10-18T14:11:47;16.20;;;8.73;;
70467;SDS011;57934;51.532;7.684;2022-10-18T14:16:59;18.33;;;10.70;;
70467;SDS011;57934;51.532;7.684;2022-10-18T14:19:38;18.02;;;10.35;;
70467;SDS011;57934;51.532;7.684;2022-10-18T14:22:09;17.10;;;9.85;;
70467;SDS011;57934;51.532;7.684;2022-10-18T14:24:49;15.02;;;8.45;;
70467;SDS011;57934;51.532;7.684;2022-10-18T14:27:20;14.07;;;7.05;;
70467;SDS011;57934;51.532;7.684;2022-10-18T14:29:48;11.23;;;5.15;;
70467;SDS011;57934;51.532;7.684;2022-10-18T14:32:25;11.23;;;5.15;;
70467;SDS011;57934;51.532;7.684;2022-10-18T14:34:53;11.43;;;4.93;;
70467;SDS011;57934;51.532;7.684;2022-10-18T14:37:25;16.27;;;5.50;;
70467;SDS011;57934;51.532;7.684;2022-10-18T14:39:53;13.13;;;5.65;;
70467;SDS011;57934;51.532;7.684;2022-10-18T14:42:23;12.00;;;5.05;;
70467;SDS011;57934;51.532;7.684;2022-10-18T14:44:51;8.52;;;4.40;;
70467;SDS011;57934;51.532;7.684;2022-10-18T14:47:22;14.00;;;4.15;;
70467;SDS011;57934;51.532;7.684;2022-10-18T14:49:50;14.05;;;3.85;;
70467;SDS011;57934;51.532;7.684;2022-10-18T14:52:20;9.75;;;3.03;;
70467;SDS011;57934;51.532;7.684;2022-10-18T14:54:55;13.90;;;3.28;;
70467;SDS011;57934;51.532;7.684;2022-10-18T14:57:24;9.77;;;3.50;;
70467;SDS011;57934;51.532;7.684;2022-10-18T14:59:58;10.60;;;3.17;;
70467;SDS011;57934;51.532;7.684;2022-10-18T15:02:30;8.80;;;2.22;;
70467;SDS011;57934;51.532;7.684;2022-10-18T15:05:07;8.75;;;3.17;;
70467;SDS011;57934;51.532;7.684;2022-10-18T15:07:35;15.35;;;2.72;;
70467;SDS011;57934;51.532;7.684;2022-10-18T15:10:02;15.00;;;2.80;;
70467;SDS011;57934;51.532;7.684;2022-10-18T15:12:30;6.50;;;2.28;;
70467;SDS011;57934;51.532;7.684;2022-10-18T15:14:58;11.98;;;2.67;;
70467;SDS011;57934;51.532;7.684;2022-10-18T15:17:28;8.68;;;2.20;;
70467;SDS011;57934;51.532;7.684;2022-10-18T15:22:23;9.13;;;2.10;;
70467;SDS011;57934;51.532;7.684;2022-10-18T15:27:39;7.63;;;2.15;;
70467;SDS011;57934;51.532;7.684;2022-10-18T15:35:27;4.68;;;2.13;;
70467;SDS011;57934;51.532;7.684;2022-10-18T15:37:56;7.82;;;2.20;;
70467;SDS011;57934;51.532;7.684;2022-10-18T15:42:49;8.02;;;1.73;;
70467;SDS011;57934;51.532;7.684;2022-10-18T15:50:38;8.57;;;1.50;;
70467;SDS011;57934;51.532;7.684;2022-10-18T15:58:16;9.77;;;1.95;;
70467;SDS011;57934;51.532;7.684;2022-10-18T16:01:01;8.13;;;1.85;;
70467;SDS011;57934;51.532;7.684;2022-10-18T16:03:31;6.70;;;1.48;;
70467;SDS011;57934;51.532;7.684;2022-10-18T16:06:02;9.15;;;2.13;;
70467;SDS011;57934;51.532;7.684;2022-10-18T16:08:30;8.15;;;2.20;;
70467;SDS011;57934;51.532;7.684;2022-10-18T16:10:57;7.35;;;1.92;;
70467;SDS011;57934;51.532;7.684;2022-10-18T16:13:24;8.30;;;1.92;;
70467;SDS011;57934;51.532;7.684;2022-10-18T16:15:51;5.70;;;1.52;;
70467;SDS011;57934;51.532;7.684;2022-10-18T16:18:20;12.35;;;2.47;;
70467;SDS011;57934;51.532;7.684;2022-10-18T16:20:48;12.13;;;2.38;;
70467;SDS011;57934;51.532;7.684;2022-10-18T16:23:21;10.00;;;2.30;;
70467;SDS011;57934;51.532;7.684;2022-10-18T16:25:49;6.00;;;2.00;;
70467;SDS011;57934;51.532;7.684;2022-10-18T16:28:17;7.70;;;2.13;;
70467;SDS011;57934;51.532;7.684;2022-10-18T16:30:49;10.45;;;2.42;;
70467;SDS011;57934;51.532;7.684;2022-10-18T16:33:19;9.20;;;2.40;;
70467;SDS011;57934;51.532;7.684;2022-10-18T16:35:45;17.15;;;2.55;;
70467;SDS011;57934;51.532;7.684;2022-10-18T16:38:25;7.63;;;2.15;;
70467;SDS011;57934;51.532;7.684;2022-10-18T16:40:51;9.25;;;2.35;;
70467;SDS011;57934;51.532;7.684;2022-10-18T16:43:18;18.40;;;3.40;;
70467;SDS011;57934;51.532;7.684;2022-10-18T16:45:44;12.55;;;3.55;;
70467;SDS011;57934;51.532;7.684;2022-10-18T16:48:21;12.30;;;3.65;;
70467;SDS011;57934;51.532;7.684;2022-10-18T16:50:49;8.27;;;3.30;;
70467;SDS011;57934;51.532;7.684;2022-10-18T16:53:15;9.93;;;3.63;;
70467;SDS011;57934;51.532;7.684;2022-10-18T16:55:41;11.65;;;3.17;;
70467;SDS011;57934;51.532;7.684;2022-10-18T16:58:15;14.63;;;3.55;;
70467;SDS011;57934;51.532;7.684;2022-10-18T17:00:43;12.60;;;3.42;;
70467;SDS011;57934;51.532;7.684;2022-10-18T17:03:11;13.60;;;3.28;;
70467;SDS011;57934;51.532;7.684;2022-10-18T17:05:38;11.75;;;2.88;;
70467;SDS011;57934;51.532;7.684;2022-10-18T17:08:04;7.07;;;2.70;;
70467;SDS011;57934;51.532;7.684;2022-10-18T17:10:31;9.27;;;3.22;;
70467;SDS011;57934;51.532;7.684;2022-10-18T17:12:57;9.90;;;2.63;;
70467;SDS011;57934;51.532;7.684;2022-10-18T17:15:23;5.03;;;2.70;;
70467;SDS011;57934;51.532;7.684;2022-10-18T17:17:49;10.85;;;2.88;;
70467;SDS011;57934;51.532;7.684;2022-10-18T17:20:21;9.38;;;3.60;;
70467;SDS011;57934;51.532;7.684;2022-10-18T17:22:51;15.48;;;5.32;;
70467;SDS011;57934;51.532;7.684;2022-10-18T17:25:18;12.38;;;5.22;;
70467;SDS011;57934;51.532;7.684;2022-10-18T17:27:44;13.07;;;4.78;;
70467;SDS011;57934;51.532;7.684;2022-10-18T17:30:11;9.63;;;4.65;;
70467;SDS011;57934;51.532;7.684;2022-10-18T17:32:40;12.70;;;5.47;;
70467;SDS011;57934;51.532;7.684;2022-10-18T17:35:09;16.25;;;4.60;;
70467;SDS011;57934;51.532;7.684;2022-10-18T17:37:37;10.40;;;4.40;;
70467;SDS011;57934;51.532;7.684;2022-10-18T17:40:05;8.70;;;4.43;;
70467;SDS011;57934;51.532;7.684;2022-10-18T17:42:32;11.15;;;4.75;;
70467;SDS011;57934;51.532;7.684;2022-10-18T17:44:58;16.00;;;5.25;;
70467;SDS011;57934;51.532;7.684;2022-10-18T17:47:24;8.23;;;4.55;;